Terminal Aerodrome Forecast
Issued by NWS Wichita, KS

Home | Current Version | Previous Version | Graphics & Text | Print | Product List | Glossary On
Versions: 1 2 3 4 5 6 7 8 9 10 11 12
717
FTUS43 KICT 301720
TAFICT
TAF
KICT 301720Z 3018/0118 VRB03KT P6SM FEW300
     FM010000 08004KT P6SM SCT250
     FM011400 12005KT P6SM FEW150 BKN200=

USA.gov is the U.S. government's official web portal to all federal, state and local government web resources and services.